createdAt,value
2022-08-31T00:02:01.421Z,3.33
2022-08-31T00:04:32.402Z,3.60
2022-08-31T00:07:00.522Z,4.10
2022-08-31T00:09:30.980Z,4.33
2022-08-31T00:11:58.925Z,3.60
2022-08-31T00:14:28.398Z,3.60
2022-08-31T00:16:56.560Z,3.60
2022-08-31T00:19:24.708Z,3.70
2022-08-31T00:21:54.043Z,3.83
2022-08-31T00:24:22.175Z,3.90
2022-08-31T00:26:50.146Z,3.80
2022-08-31T00:29:18.274Z,3.50
2022-08-31T00:31:46.501Z,4.60
2022-08-31T00:34:15.122Z,3.60
2022-08-31T00:36:43.167Z,3.53
2022-08-31T00:39:12.511Z,4.10
2022-08-31T00:41:40.626Z,3.43
2022-08-31T00:44:11.099Z,3.80
2022-08-31T00:46:41.830Z,4.10
2022-08-31T00:49:13.120Z,4.13
2022-08-31T00:51:45.599Z,4.57
2022-08-31T00:54:17.922Z,4.57
2022-08-31T00:56:46.486Z,5.13
2022-08-31T00:59:20.865Z,5.20
2022-08-31T01:01:49.225Z,5.20
2022-08-31T01:04:17.976Z,5.87
2022-08-31T01:06:48.050Z,5.23
2022-08-31T01:09:17.802Z,6.10
2022-08-31T01:11:45.844Z,6.30
2022-08-31T01:14:14.767Z,6.13
2022-08-31T01:16:47.212Z,7.17
2022-08-31T01:19:22.277Z,7.27
2022-08-31T01:21:56.128Z,7.17
2022-08-31T01:24:27.667Z,7.80
2022-08-31T01:26:56.657Z,8.90
2022-08-31T01:29:24.770Z,8.20
2022-08-31T01:31:52.922Z,8.77
2022-08-31T01:34:21.254Z,8.83
2022-08-31T01:36:51.092Z,8.37
2022-08-31T01:39:20.591Z,7.90
2022-08-31T01:41:50.001Z,8.00
2022-08-31T01:44:22.467Z,8.47
2022-08-31T01:46:51.811Z,9.03
2022-08-31T01:49:22.864Z,8.60
2022-08-31T01:51:53.109Z,8.90
2022-08-31T01:54:26.602Z,8.50
2022-08-31T01:56:56.753Z,8.03
2022-08-31T01:59:33.377Z,7.43
2022-08-31T02:02:24.833Z,8.03
2022-08-31T02:04:52.885Z,8.77
2022-08-31T02:07:21.541Z,8.83
2022-08-31T02:09:49.738Z,8.60
2022-08-31T02:12:20.342Z,8.83
2022-08-31T02:14:49.628Z,8.17
2022-08-31T02:17:17.886Z,9.13
2022-08-31T02:19:45.959Z,8.70
2022-08-31T02:22:15.558Z,8.80
2022-08-31T02:24:44.448Z,8.83
2022-08-31T02:27:12.552Z,8.60
2022-08-31T02:29:42.033Z,8.73
2022-08-31T02:32:19.625Z,7.47
2022-08-31T02:34:48.893Z,8.33
2022-08-31T02:37:17.995Z,7.67
2022-08-31T02:39:48.751Z,8.40
2022-08-31T02:42:19.415Z,8.47
2022-08-31T02:44:48.887Z,7.87
2022-08-31T02:47:17.008Z,7.97
2022-08-31T02:50:03.773Z,8.40
2022-08-31T02:52:32.381Z,8.10
2022-08-31T02:55:00.413Z,8.70
2022-08-31T02:57:30.082Z,8.53
2022-08-31T02:59:59.761Z,8.10
2022-08-31T03:02:32.053Z,8.33
2022-08-31T03:05:01.829Z,8.47
2022-08-31T03:07:31.561Z,8.90
2022-08-31T03:10:00.544Z,8.20
2022-08-31T03:12:28.518Z,8.13
2022-08-31T03:14:58.932Z,8.37
2022-08-31T03:17:26.940Z,8.40
2022-08-31T03:20:04.450Z,8.90
2022-08-31T03:22:33.854Z,8.50
2022-08-31T03:25:02.033Z,9.17
2022-08-31T03:27:30.763Z,9.00
2022-08-31T03:30:00.971Z,8.93
2022-08-31T03:32:33.346Z,8.63
2022-08-31T03:35:02.567Z,9.30
2022-08-31T03:37:30.690Z,9.20
2022-08-31T03:40:01.454Z,8.93
2022-08-31T03:42:32.527Z,9.00
2022-08-31T03:45:02.744Z,8.50
2022-08-31T03:47:33.452Z,9.30
2022-08-31T03:50:03.937Z,9.07
2022-08-31T03:52:47.771Z,8.60
2022-08-31T03:55:19.894Z,9.17
2022-08-31T03:57:49.254Z,9.63
2022-08-31T04:00:18.944Z,8.77
2022-08-31T04:02:57.337Z,11.63
2022-08-31T04:05:25.464Z,8.90
2022-08-31T04:08:12.517Z,8.83
2022-08-31T04:10:48.163Z,8.60
2022-08-31T04:13:29.528Z,8.80
2022-08-31T04:16:20.328Z,8.90
2022-08-31T04:19:25.117Z,9.50
2022-08-31T04:22:01.254Z,9.60
2022-08-31T04:24:34.185Z,9.67
2022-08-31T04:27:02.235Z,9.63
2022-08-31T04:29:30.704Z,10.00
2022-08-31T04:32:01.113Z,9.73
2022-08-31T04:34:29.266Z,9.63
2022-08-31T04:36:57.505Z,9.67
2022-08-31T04:39:26.498Z,10.23
2022-08-31T04:42:00.361Z,10.33
2022-08-31T04:44:30.953Z,9.70
2022-08-31T04:47:01.628Z,10.53
2022-08-31T04:49:29.736Z,9.97
2022-08-31T04:51:57.829Z,9.83
2022-08-31T04:54:25.950Z,9.57
2022-08-31T04:56:54.927Z,10.23
2022-08-31T04:59:30.280Z,9.57
2022-08-31T05:02:18.340Z,9.63
2022-08-31T05:04:52.445Z,9.43
2022-08-31T05:07:20.898Z,9.27
2022-08-31T05:09:49.580Z,9.57
2022-08-31T05:12:17.628Z,8.87
2022-08-31T05:14:47.905Z,9.80
2022-08-31T05:17:25.114Z,9.20
2022-08-31T05:19:53.661Z,9.13
2022-08-31T05:22:21.843Z,8.83
2022-08-31T05:24:52.795Z,9.10
2022-08-31T05:27:21.122Z,9.20
2022-08-31T05:29:49.228Z,9.70
2022-08-31T05:32:39.330Z,9.33
2022-08-31T05:35:09.089Z,9.30
2022-08-31T05:37:37.339Z,9.73
2022-08-31T05:40:06.420Z,9.03
2022-08-31T05:42:34.910Z,10.17
2022-08-31T05:45:03.029Z,9.70
2022-08-31T05:47:32.275Z,9.63
2022-08-31T05:50:01.760Z,9.03
2022-08-31T05:52:32.837Z,9.27
2022-08-31T05:55:00.997Z,8.67
2022-08-31T05:57:29.056Z,8.80
2022-08-31T05:59:58.568Z,8.93
2022-08-31T06:02:27.505Z,8.10
2022-08-31T06:04:58.980Z,8.20
2022-08-31T06:07:29.154Z,8.60
2022-08-31T06:10:01.648Z,7.93
2022-08-31T06:12:34.273Z,8.20
2022-08-31T06:15:05.164Z,8.90
2022-08-31T06:17:34.727Z,8.93
2022-08-31T06:20:03.452Z,8.90
2022-08-31T06:22:37.161Z,9.73
2022-08-31T06:25:10.541Z,8.47
2022-08-31T06:27:38.922Z,10.00
2022-08-31T06:30:09.570Z,9.97
2022-08-31T06:32:37.560Z,9.90
2022-08-31T06:35:07.092Z,9.93
2022-08-31T06:38:05.304Z,10.13
2022-08-31T06:41:02.981Z,9.87
2022-08-31T06:43:44.973Z,10.60
2022-08-31T06:46:25.695Z,9.57
2022-08-31T06:49:09.893Z,9.27
2022-08-31T06:51:38.948Z,8.70
2022-08-31T06:54:28.488Z,7.70
2022-08-31T06:57:16.467Z,8.00
2022-08-31T06:59:47.184Z,8.37
2022-08-31T07:02:34.096Z,8.13
2022-08-31T07:05:02.181Z,7.60
2022-08-31T07:07:31.697Z,7.83
2022-08-31T07:10:01.044Z,8.20
2022-08-31T07:12:31.017Z,8.20
2022-08-31T07:14:59.099Z,8.67
2022-08-31T07:17:27.090Z,8.23
2022-08-31T07:19:55.258Z,8.63
2022-08-31T07:22:23.706Z,8.73
2022-08-31T07:25:00.293Z,8.80
2022-08-31T07:27:30.125Z,8.80
2022-08-31T07:30:00.209Z,7.97
2022-08-31T07:32:31.453Z,8.50
2022-08-31T07:35:01.198Z,7.93
2022-08-31T07:37:49.411Z,7.63
2022-08-31T07:40:37.876Z,7.27
2022-08-31T07:43:07.896Z,6.87
2022-08-31T07:45:39.334Z,7.30
2022-08-31T07:48:08.252Z,6.73
2022-08-31T07:50:58.345Z,6.53
2022-08-31T07:53:47.464Z,7.10
2022-08-31T07:56:35.003Z,7.60
2022-08-31T07:59:11.526Z,6.90
2022-08-31T08:01:41.714Z,6.77
2022-08-31T08:04:20.044Z,7.50
2022-08-31T08:06:55.931Z,6.83
2022-08-31T08:09:42.776Z,7.00
2022-08-31T08:12:36.463Z,6.70
2022-08-31T08:15:38.803Z,7.17
2022-08-31T08:18:27.868Z,7.53
2022-08-31T08:21:02.656Z,7.93
2022-08-31T08:23:30.847Z,8.43
2022-08-31T08:26:21.161Z,8.63
2022-08-31T08:29:17.530Z,8.60
2022-08-31T08:31:52.174Z,8.77
2022-08-31T08:34:21.236Z,9.40
2022-08-31T08:36:57.819Z,8.67
2022-08-31T08:39:25.851Z,7.93
2022-08-31T08:42:09.455Z,7.63
2022-08-31T08:44:40.159Z,8.03
2022-08-31T08:47:15.313Z,7.27
2022-08-31T08:49:54.458Z,6.80
2022-08-31T08:52:28.391Z,7.40
2022-08-31T08:55:01.540Z,6.87
2022-08-31T08:57:31.978Z,6.73
2022-08-31T09:00:10.669Z,6.97
2022-08-31T09:02:47.823Z,7.00
2022-08-31T09:05:51.906Z,7.23
2022-08-31T09:09:12.641Z,7.27
2022-08-31T09:11:58.917Z,6.47
2022-08-31T09:14:53.327Z,7.70
2022-08-31T09:17:40.404Z,6.80
2022-08-31T09:20:09.461Z,6.90
2022-08-31T09:22:46.865Z,6.70
2022-08-31T09:25:19.871Z,6.73
2022-08-31T09:28:01.924Z,6.60
2022-08-31T09:30:46.260Z,6.50
2022-08-31T09:33:20.280Z,6.50
2022-08-31T09:35:55.981Z,6.33
2022-08-31T09:38:30.007Z,6.43
2022-08-31T09:40:58.746Z,6.30
2022-08-31T09:43:35.078Z,6.03
2022-08-31T09:46:07.779Z,5.50
2022-08-31T09:48:44.338Z,5.23
2022-08-31T09:51:21.445Z,6.40
2022-08-31T09:54:07.344Z,6.70
2022-08-31T09:56:55.484Z,6.10
2022-08-31T09:59:37.318Z,6.33
2022-08-31T10:02:11.214Z,6.20
2022-08-31T10:04:52.255Z,6.90
2022-08-31T10:07:33.563Z,6.27
2022-08-31T10:10:05.527Z,6.20
2022-08-31T10:12:43.813Z,6.77
2022-08-31T10:15:17.324Z,5.83
2022-08-31T10:17:51.555Z,6.43
2022-08-31T10:20:30.370Z,6.10
2022-08-31T10:23:08.722Z,6.40
2022-08-31T10:25:42.862Z,6.60
2022-08-31T10:28:16.388Z,6.50
2022-08-31T10:30:54.216Z,5.63
2022-08-31T10:33:46.239Z,6.07
2022-08-31T10:36:17.080Z,6.70
2022-08-31T10:38:48.069Z,5.73
2022-08-31T10:41:22.146Z,6.27
2022-08-31T10:44:00.122Z,6.70
2022-08-31T10:46:32.160Z,6.27
2022-08-31T10:49:02.160Z,6.40
2022-08-31T10:51:39.354Z,7.10
2022-08-31T10:54:24.655Z,6.27
2022-08-31T10:57:04.285Z,6.60
2022-08-31T10:59:37.611Z,5.90
2022-08-31T11:02:33.837Z,6.30
2022-08-31T11:05:10.813Z,6.27
2022-08-31T11:07:51.261Z,5.90
2022-08-31T11:10:25.940Z,6.57
2022-08-31T11:12:57.625Z,6.60
2022-08-31T11:15:47.782Z,8.20
2022-08-31T11:18:52.533Z,6.13
2022-08-31T11:21:45.172Z,7.47
2022-08-31T11:24:41.228Z,5.70
2022-08-31T11:27:14.370Z,6.00
2022-08-31T11:29:51.793Z,5.97
2022-08-31T11:32:24.682Z,6.50
2022-08-31T11:34:56.507Z,6.63
2022-08-31T11:37:50.948Z,7.23
2022-08-31T11:40:52.589Z,6.43
2022-08-31T11:43:53.762Z,6.63
2022-08-31T11:46:59.785Z,6.23
2022-08-31T11:49:48.058Z,6.90
2022-08-31T11:52:48.305Z,6.57
2022-08-31T11:55:28.428Z,6.70
2022-08-31T11:58:25.872Z,6.43
2022-08-31T12:00:59.154Z,6.37
2022-08-31T12:03:52.310Z,6.80
2022-08-31T12:07:11.078Z,6.50
2022-08-31T12:10:31.233Z,6.87
2022-08-31T12:13:32.314Z,7.10
2022-08-31T12:16:21.317Z,6.77
2022-08-31T12:19:08.730Z,6.90
2022-08-31T12:22:07.192Z,6.37
2022-08-31T12:24:40.805Z,7.37
2022-08-31T12:27:31.718Z,6.90
2022-08-31T12:30:20.728Z,6.30
2022-08-31T12:32:58.630Z,7.23
2022-08-31T12:35:28.383Z,7.50
2022-08-31T12:38:01.291Z,6.80
2022-08-31T12:40:34.125Z,7.27
2022-08-31T12:43:10.236Z,6.60
2022-08-31T12:45:58.108Z,6.60
2022-08-31T12:48:45.174Z,6.40
2022-08-31T12:51:25.085Z,7.13
2022-08-31T12:54:06.373Z,6.77
2022-08-31T12:56:43.563Z,6.50
2022-08-31T12:59:40.819Z,6.67
2022-08-31T13:02:16.565Z,6.87
2022-08-31T13:04:46.618Z,6.50
2022-08-31T13:07:19.158Z,6.90
2022-08-31T13:09:47.653Z,7.10
2022-08-31T13:12:24.781Z,6.70
2022-08-31T13:14:54.108Z,6.67
2022-08-31T13:17:22.566Z,6.50
2022-08-31T13:19:53.054Z,5.97
2022-08-31T13:22:33.250Z,6.50
2022-08-31T13:25:16.380Z,5.80
2022-08-31T13:27:50.049Z,5.53
2022-08-31T13:30:25.624Z,6.10
2022-08-31T13:32:54.903Z,6.00
2022-08-31T13:35:26.351Z,5.57
2022-08-31T13:38:03.966Z,5.43
2022-08-31T13:40:37.270Z,5.68
2022-08-31T13:43:08.428Z,5.32
2022-08-31T13:45:47.371Z,5.13
2022-08-31T13:48:20.716Z,5.28
2022-08-31T13:50:53.606Z,5.35
2022-08-31T13:53:38.014Z,5.68
2022-08-31T13:56:52.599Z,5.35
2022-08-31T13:59:33.360Z,5.50
2022-08-31T14:02:07.226Z,5.38
2022-08-31T14:05:01.242Z,6.25
2022-08-31T14:07:33.198Z,6.03
2022-08-31T14:10:05.310Z,5.60
2022-08-31T14:12:36.363Z,5.70
2022-08-31T14:15:19.270Z,5.78
2022-08-31T14:21:09.954Z,6.35
2022-08-31T14:23:34.991Z,8.55
2022-08-31T14:26:06.419Z,6.10
2022-08-31T14:28:41.466Z,5.28
2022-08-31T14:31:24.676Z,6.18
2022-08-31T14:34:08.067Z,5.95
2022-08-31T14:36:43.617Z,5.32
2022-08-31T14:39:11.592Z,5.78
2022-08-31T14:41:39.853Z,5.88
2022-08-31T14:44:10.202Z,5.82
2022-08-31T14:46:39.659Z,5.70
2022-08-31T14:49:10.810Z,6.28
2022-08-31T14:51:41.964Z,6.25
2022-08-31T14:54:10.421Z,5.97
2022-08-31T14:56:45.423Z,5.80
2022-08-31T14:59:16.759Z,5.45
2022-08-31T15:01:45.506Z,5.47
2022-08-31T15:04:17.195Z,5.45
2022-08-31T15:06:49.772Z,5.63
2022-08-31T15:09:18.405Z,5.40
2022-08-31T15:11:47.332Z,5.53
2022-08-31T15:14:15.318Z,5.20
2022-08-31T15:16:46.637Z,6.23
2022-08-31T15:19:17.954Z,5.80
2022-08-31T15:21:52.805Z,6.20
2022-08-31T15:24:31.377Z,8.47
2022-08-31T15:26:59.878Z,6.23
2022-08-31T15:29:30.188Z,5.97
2022-08-31T15:31:59.693Z,6.10
2022-08-31T15:34:32.309Z,5.80
2022-08-31T15:37:02.898Z,6.07
2022-08-31T15:39:34.952Z,6.77
2022-08-31T15:42:08.967Z,5.80
2022-08-31T15:44:37.417Z,5.60
2022-08-31T15:47:24.327Z,4.10
2022-08-31T15:49:55.599Z,4.20
2022-08-31T15:52:27.611Z,3.97
2022-08-31T15:54:56.997Z,4.00
2022-08-31T15:57:24.940Z,3.70
2022-08-31T15:59:52.901Z,3.37
2022-08-31T16:02:21.140Z,3.23
2022-08-31T16:04:51.272Z,3.90
2022-08-31T16:07:22.533Z,3.63
2022-08-31T16:09:50.558Z,3.90
2022-08-31T16:12:19.058Z,3.57
2022-08-31T16:14:47.044Z,3.97
2022-08-31T16:17:19.927Z,4.00
2022-08-31T16:19:48.015Z,3.80
2022-08-31T16:22:17.102Z,4.13
2022-08-31T16:24:49.843Z,3.90
2022-08-31T16:27:20.269Z,4.40
2022-08-31T16:29:50.634Z,6.17
2022-08-31T16:32:18.719Z,4.20
2022-08-31T16:34:47.139Z,4.50
2022-08-31T16:37:15.258Z,4.10
2022-08-31T16:39:47.246Z,4.40
2022-08-31T16:42:16.122Z,4.10
2022-08-31T16:44:46.602Z,4.20
2022-08-31T16:47:16.795Z,4.00
2022-08-31T16:49:44.304Z,4.30
2022-08-31T16:52:14.686Z,4.30
2022-08-31T16:54:44.930Z,4.55
2022-08-31T16:57:16.320Z,4.50
2022-08-31T16:59:45.519Z,4.33
2022-08-31T17:02:14.948Z,4.47
2022-08-31T17:04:53.464Z,3.93
2022-08-31T17:07:23.058Z,5.00
2022-08-31T17:09:52.350Z,4.30
2022-08-31T17:12:27.132Z,4.70
2022-08-31T17:14:55.905Z,5.10
2022-08-31T17:17:27.656Z,4.77
2022-08-31T17:19:56.657Z,4.43
2022-08-31T17:22:32.492Z,4.43
2022-08-31T17:25:02.872Z,4.43
2022-08-31T17:27:34.033Z,4.53
2022-08-31T17:30:05.715Z,4.53
2022-08-31T17:32:36.405Z,4.80
2022-08-31T17:35:08.903Z,4.77
2022-08-31T17:37:36.981Z,4.67
2022-08-31T17:40:07.905Z,5.30
2022-08-31T17:42:37.683Z,5.13
2022-08-31T17:45:08.392Z,5.10
2022-08-31T17:47:36.550Z,5.47
2022-08-31T17:50:05.805Z,4.73
2022-08-31T17:52:34.056Z,4.97
2022-08-31T17:55:02.004Z,4.70
2022-08-31T17:57:30.601Z,4.73
2022-08-31T17:59:59.966Z,5.10
2022-08-31T18:02:33.040Z,5.47
2022-08-31T18:05:01.197Z,4.90
2022-08-31T18:07:29.542Z,5.23
2022-08-31T18:09:58.133Z,5.40
2022-08-31T18:12:27.315Z,5.43
2022-08-31T18:14:57.930Z,5.43
2022-08-31T18:17:27.576Z,5.07
2022-08-31T18:19:55.677Z,5.27
2022-08-31T18:22:24.159Z,5.70
2022-08-31T18:24:52.145Z,4.87
2022-08-31T18:27:20.804Z,5.83
2022-08-31T18:29:48.925Z,6.13
2022-08-31T18:32:17.119Z,6.07
2022-08-31T18:34:47.445Z,5.93
2022-08-31T18:37:22.015Z,5.73
2022-08-31T18:40:08.532Z,6.20
2022-08-31T18:42:56.981Z,6.60
2022-08-31T18:45:25.482Z,6.73
2022-08-31T18:48:23.273Z,6.90
2022-08-31T18:50:48.556Z,8.53
2022-08-31T18:53:27.762Z,6.63
2022-08-31T18:55:58.893Z,7.13
2022-08-31T18:58:27.206Z,7.53
2022-08-31T19:00:57.114Z,7.83
2022-08-31T19:03:25.631Z,8.70
2022-08-31T19:05:56.383Z,10.63
2022-08-31T19:08:24.650Z,9.03
2022-08-31T19:10:56.275Z,9.33
2022-08-31T19:13:24.454Z,9.40
2022-08-31T19:15:52.612Z,9.30
2022-08-31T19:18:20.703Z,10.33
2022-08-31T19:20:48.868Z,9.33
2022-08-31T19:23:20.213Z,9.50
2022-08-31T19:25:48.564Z,11.13
2022-08-31T19:28:17.192Z,10.13
2022-08-31T19:30:48.686Z,11.07
2022-08-31T19:33:17.685Z,11.43
2022-08-31T19:35:46.118Z,11.73
2022-08-31T19:38:14.368Z,12.77
2022-08-31T19:40:44.162Z,12.80
2022-08-31T19:46:15.628Z,13.87
2022-08-31T19:48:45.054Z,13.60
2022-08-31T19:51:14.665Z,14.27
2022-08-31T19:53:45.228Z,12.97
2022-08-31T19:56:17.361Z,14.67
2022-08-31T19:58:48.405Z,13.23
2022-08-31T20:01:18.342Z,12.30
2022-08-31T20:03:47.741Z,10.77
2022-08-31T20:06:19.176Z,11.47
2022-08-31T20:08:47.747Z,11.27
2022-08-31T20:11:21.658Z,11.13
2022-08-31T20:13:51.398Z,10.77
2022-08-31T20:16:20.447Z,11.43
2022-08-31T20:18:48.917Z,11.40
2022-08-31T20:21:19.809Z,11.77
2022-08-31T20:23:49.431Z,12.50
2022-08-31T20:26:23.238Z,12.07
2022-08-31T20:29:00.130Z,11.70
2022-08-31T20:31:29.167Z,12.97
2022-08-31T20:33:58.518Z,12.60
2022-08-31T20:36:29.023Z,13.17
2022-08-31T20:39:01.033Z,13.40
2022-08-31T20:41:32.341Z,12.47
2022-08-31T20:44:10.378Z,13.17
2022-08-31T20:47:00.804Z,13.67
2022-08-31T20:49:30.352Z,14.23
2022-08-31T20:52:01.794Z,12.80
2022-08-31T20:54:31.798Z,13.20
2022-08-31T20:57:03.048Z,13.17
2022-08-31T20:59:31.357Z,12.80
2022-08-31T21:02:01.993Z,13.63
2022-08-31T21:04:31.607Z,12.40
2022-08-31T21:07:02.278Z,14.10
2022-08-31T21:09:30.856Z,13.97
2022-08-31T21:12:01.169Z,14.30
2022-08-31T21:14:30.983Z,13.77
2022-08-31T21:16:59.170Z,15.17
2022-08-31T21:19:27.154Z,14.83
2022-08-31T21:22:01.245Z,15.87
2022-08-31T21:24:29.254Z,18.77
2022-08-31T21:26:59.113Z,15.03
2022-08-31T21:29:29.481Z,15.00
2022-08-31T21:32:03.361Z,15.27
2022-08-31T21:34:33.047Z,15.37
2022-08-31T21:37:01.163Z,13.63
2022-08-31T21:39:29.177Z,14.70
2022-08-31T21:41:57.365Z,13.27
2022-08-31T21:44:25.819Z,13.63
2022-08-31T21:46:55.283Z,14.47
2022-08-31T21:49:23.789Z,13.40
2022-08-31T21:51:53.649Z,14.00
2022-08-31T21:54:24.551Z,13.30
2022-08-31T21:56:55.380Z,14.93
2022-08-31T21:59:26.360Z,14.33
2022-08-31T22:01:59.209Z,14.13
2022-08-31T22:04:28.047Z,15.13
2022-08-31T22:06:56.372Z,14.87
2022-08-31T22:09:25.154Z,14.40
2022-08-31T22:11:55.407Z,15.60
2022-08-31T22:14:28.710Z,15.73
2022-08-31T22:17:02.818Z,15.47
2022-08-31T22:19:34.025Z,15.10
2022-08-31T22:22:02.192Z,15.10
2022-08-31T22:24:32.667Z,15.57
2022-08-31T22:27:03.883Z,15.83
2022-08-31T22:29:35.304Z,16.80
2022-08-31T22:32:09.548Z,17.27
2022-08-31T22:34:38.779Z,16.27
2022-08-31T22:37:08.995Z,16.53
2022-08-31T22:39:37.444Z,15.07
2022-08-31T22:42:05.889Z,15.17
2022-08-31T22:44:35.245Z,14.40
2022-08-31T22:47:05.800Z,14.60
2022-08-31T22:49:33.979Z,14.03
2022-08-31T22:52:01.908Z,15.60
2022-08-31T22:54:30.004Z,15.73
2022-08-31T22:56:58.616Z,14.77
2022-08-31T22:59:28.189Z,16.77
2022-08-31T23:02:00.590Z,16.57
2022-08-31T23:04:32.975Z,17.17
2022-08-31T23:07:01.405Z,20.50
2022-08-31T23:09:32.062Z,17.80
2022-08-31T23:12:01.837Z,17.57
2022-08-31T23:14:32.104Z,16.93
2022-08-31T23:17:02.248Z,17.03
2022-08-31T23:19:36.572Z,16.07
2022-08-31T23:22:08.536Z,14.93
2022-08-31T23:24:38.904Z,15.50
2022-08-31T23:27:10.422Z,17.40
2022-08-31T23:29:41.407Z,17.33
2022-08-31T23:32:11.148Z,18.73
2022-08-31T23:34:41.887Z,18.00
2022-08-31T23:37:11.992Z,16.97
2022-08-31T23:39:43.314Z,15.87
2022-08-31T23:42:13.079Z,17.13
2022-08-31T23:44:43.239Z,16.63
2022-08-31T23:47:13.510Z,17.97
2022-08-31T23:49:43.739Z,16.07
2022-08-31T23:52:13.310Z,17.50
2022-08-31T23:54:41.602Z,17.63
2022-08-31T23:57:17.570Z,17.53
